Time;durP1;ratioP1;P1;durP2;ratioP2;P2;SDS_P1;SDS_P2;PMS_P1;PMS_P2;Temp;Humidity;BMP_temperature;BMP_pressure;BME280_temperature;BME280_humidity;BME280_pressure;Samples;Min_cycle;Max_cycle;Signal;HPM_P1;HPM_P2
2022/02/08 00:02:08;;;;;;;16.15;7.55;;;3.70;99.90;;;;;;5035229;28;20790;-83
2022/02/08 00:04:35;;;;;;;14.75;7.35;;;3.60;99.90;;;;;;5017851;28;20541;-83
2022/02/08 00:07:05;;;;;;;14.13;7.15;;;3.70;99.90;;;;;;5031070;28;20689;-82
2022/02/08 00:09:32;;;;;;;18.15;7.70;;;3.70;99.90;;;;;;5030537;28;20124;-83
2022/02/08 00:12:00;;;;;;;17.98;7.45;;;3.70;99.90;;;;;;5018188;28;20490;-84
2022/02/08 00:14:28;;;;;;;9.55;4.78;;;3.70;99.90;;;;;;5034567;28;20095;-82
2022/02/08 00:16:55;;;;;;;16.88;6.38;;;3.80;99.90;;;;;;5034784;28;20052;-84
2022/02/08 00:19:22;;;;;;;14.75;5.72;;;3.80;99.90;;;;;;5030222;28;20049;-84
2022/02/08 00:21:48;;;;;;;12.00;5.45;;;3.80;99.90;;;;;;5014876;28;20061;-84
2022/02/08 00:24:15;;;;;;;10.60;6.03;;;3.80;99.90;;;;;;5023212;28;20053;-84
2022/02/08 00:26:42;;;;;;;14.65;6.55;;;3.90;99.90;;;;;;5034100;28;20126;-84
2022/02/08 00:29:09;;;;;;;15.50;5.63;;;3.90;99.90;;;;;;5017452;28;20544;-83
2022/02/08 00:31:36;;;;;;;13.40;5.20;;;3.90;99.90;;;;;;5033437;28;20056;-84
2022/02/08 00:34:04;;;;;;;14.35;5.40;;;3.80;99.90;;;;;;5034346;28;20068;-83
2022/02/08 00:36:30;;;;;;;13.50;5.18;;;3.90;99.90;;;;;;5016536;28;20422;-83
2022/02/08 00:38:57;;;;;;;18.77;5.75;;;3.80;99.90;;;;;;5019096;28;20040;-84
2022/02/08 00:41:25;;;;;;;17.05;6.55;;;3.80;99.90;;;;;;5033672;28;20090;-82
2022/02/08 00:44:04;;;;;;;15.80;6.38;;;3.80;99.90;;;;;;5017674;28;20049;-84
2022/02/08 00:49:01;;;;;;;11.02;5.20;;;3.80;99.90;;;;;;5035064;28;20049;-83
2022/02/08 00:51:38;;;;;;;11.32;6.18;;;3.70;99.90;;;;;;5033276;28;20045;-84
2022/02/08 00:54:06;;;;;;;10.73;4.95;;;3.80;99.90;;;;;;5019079;28;20099;-84
2022/02/08 00:56:34;;;;;;;20.80;6.32;;;3.80;99.90;;;;;;5017402;28;20049;-83
2022/02/08 00:59:01;;;;;;;15.32;5.93;;;3.70;99.90;;;;;;5017131;28;20405;-83
2022/02/08 01:01:30;;;;;;;19.55;6.72;;;3.80;99.90;;;;;;5017342;28;20136;-84
2022/02/08 01:03:57;;;;;;;13.77;5.18;;;3.80;99.90;;;;;;5034283;28;20095;-84
2022/02/08 01:06:25;;;;;;;9.63;4.82;;;3.90;99.90;;;;;;5016912;28;20107;-84
2022/02/08 01:09:03;;;;;;;15.30;5.10;;;3.90;99.90;;;;;;5033594;28;20052;-83
2022/02/08 01:11:30;;;;;;;19.88;5.70;;;3.90;99.90;;;;;;5033043;28;20041;-82
2022/02/08 01:13:57;;;;;;;18.88;5.82;;;3.90;99.90;;;;;;5017442;28;20045;-81
2022/02/08 01:16:23;;;;;;;14.40;4.75;;;3.90;99.90;;;;;;5016543;28;20455;-83
2022/02/08 01:18:54;;;;;;;10.30;5.00;;;4.00;99.90;;;;;;5028777;28;20085;-82
2022/02/08 01:21:23;;;;;;;13.93;5.43;;;4.10;99.90;;;;;;5013439;28;20056;-83
2022/02/08 01:23:50;;;;;;;20.15;5.07;;;4.10;99.90;;;;;;5013684;28;20144;-84
2022/02/08 01:26:18;;;;;;;13.25;5.63;;;4.10;99.90;;;;;;5039060;28;20094;-84
2022/02/08 01:29:04;;;;;;;20.77;8.18;;;4.20;99.90;;;;;;5033262;28;20115;-84
2022/02/08 01:31:37;;;;;;;9.63;4.80;;;4.20;99.90;;;;;;5033514;28;20053;-82
2022/02/08 01:39:44;;;;;;;19.65;5.47;;;4.30;99.90;;;;;;5029081;28;20045;-83
2022/02/08 01:42:28;;;;;;;10.43;4.95;;;4.30;99.90;;;;;;5016535;28;20045;-83
2022/02/08 01:45:36;;;;;;;16.15;5.43;;;4.30;99.90;;;;;;5017140;28;20057;-84
2022/02/08 01:50:35;;;;;;;12.85;5.47;;;4.40;99.90;;;;;;5032798;28;20045;-82
2022/02/08 01:53:04;;;;;;;18.83;5.95;;;4.40;99.90;;;;;;5017255;28;20052;-83
2022/02/08 01:55:34;;;;;;;20.65;6.13;;;4.40;99.90;;;;;;5015141;28;20064;-85
2022/02/08 01:58:19;;;;;;;19.08;5.97;;;4.40;99.90;;;;;;5033012;28;20053;-84
2022/02/08 02:00:50;;;;;;;18.05;5.43;;;4.50;99.90;;;;;;5016235;28;20052;-83
2022/02/08 02:03:17;;;;;;;20.40;5.65;;;4.50;99.90;;;;;;5033637;28;20053;-83
2022/02/08 02:05:44;;;;;;;17.20;5.03;;;4.50;99.90;;;;;;5016364;28;20045;-82
2022/02/08 02:08:12;;;;;;;17.27;4.82;;;4.50;99.90;;;;;;5021659;28;20049;-84
2022/02/08 02:10:41;;;;;;;15.55;5.47;;;4.50;99.90;;;;;;5015912;28;20394;-85
2022/02/08 02:13:10;;;;;;;18.40;4.40;;;4.40;99.90;;;;;;5016550;28;20098;-84
2022/02/08 02:15:40;;;;;;;15.40;4.95;;;4.30;99.90;;;;;;5032011;28;20040;-84
2022/02/08 02:18:10;;;;;;;26.98;5.47;;;4.30;99.90;;;;;;5022688;28;20053;-83
2022/02/08 02:20:37;;;;;;;17.85;5.28;;;4.20;99.90;;;;;;5028690;28;20049;-82
2022/02/08 02:23:05;;;;;;;18.20;5.10;;;4.10;99.90;;;;;;5012232;28;20046;-84
2022/02/08 02:25:33;;;;;;;17.05;5.57;;;4.10;99.90;;;;;;5045475;28;20122;-85
2022/02/08 02:28:03;;;;;;;26.65;6.70;;;4.00;99.90;;;;;;5029179;28;20082;-83
2022/02/08 02:30:32;;;;;;;27.45;7.10;;;4.00;99.90;;;;;;5010530;28;20068;-83
2022/02/08 02:33:03;;;;;;;37.58;7.90;;;4.00;99.90;;;;;;4996042;28;20045;-83
2022/02/08 02:35:31;;;;;;;33.05;9.05;;;3.90;99.90;;;;;;5015638;28;20099;-82
2022/02/08 02:38:06;;;;;;;38.38;10.02;;;3.90;99.90;;;;;;5015480;28;20045;-82
2022/02/08 02:40:41;;;;;;;31.27;8.60;;;3.90;99.90;;;;;;5014761;28;20064;-81
2022/02/08 02:43:09;;;;;;;36.78;10.27;;;3.90;99.90;;;;;;5013508;28;20052;-83
2022/02/08 02:45:37;;;;;;;37.00;12.30;;;3.80;99.90;;;;;;5012933;28;20065;-81
2022/02/08 02:48:04;;;;;;;47.15;12.68;;;3.80;99.90;;;;;;5032133;28;20049;-83
2022/02/08 02:50:39;;;;;;;26.77;11.95;;;3.90;99.90;;;;;;5010645;28;20243;-81
2022/02/08 02:53:06;;;;;;;36.28;12.57;;;3.90;99.90;;;;;;5018279;28;20820;-83
2022/02/08 02:55:35;;;;;;;41.17;14.38;;;3.90;99.90;;;;;;5011282;28;20041;-81
2022/02/08 02:58:06;;;;;;;45.63;14.88;;;3.90;99.90;;;;;;5010225;28;20049;-81
2022/02/08 03:00:44;;;;;;;39.33;15.18;;;3.90;99.90;;;;;;5028041;28;20053;-81
2022/02/08 03:19:28;;;;;;;36.38;17.05;;;4.00;99.90;;;;;;5030008;28;20052;-81
2022/02/08 03:21:55;;;;;;;41.97;17.48;;;4.00;99.90;;;;;;5030566;28;20053;-81
2022/02/08 03:24:22;;;;;;;29.60;14.43;;;4.00;99.90;;;;;;5029818;28;20056;-80
2022/02/08 03:26:51;;;;;;;29.50;15.80;;;4.00;99.90;;;;;;5009268;28;20049;-82
2022/02/08 03:29:19;;;;;;;34.13;15.85;;;4.00;99.90;;;;;;5011306;28;20438;-81
2022/02/08 03:31:46;;;;;;;33.35;16.45;;;4.10;99.90;;;;;;5010154;28;20133;-83
2022/02/08 03:34:13;;;;;;;31.95;15.80;;;4.10;99.90;;;;;;5010714;28;20127;-81
2022/02/08 03:36:43;;;;;;;27.35;15.70;;;4.10;99.90;;;;;;5022949;28;20446;-81
2022/02/08 03:39:16;;;;;;;30.52;16.38;;;4.10;99.90;;;;;;5011083;28;20041;-81
2022/02/08 03:41:54;;;;;;;35.30;15.77;;;4.10;99.90;;;;;;5011316;28;20069;-80
2022/02/08 03:44:30;;;;;;;29.83;16.35;;;4.10;99.90;;;;;;5012827;28;20434;-82
2022/02/08 03:47:04;;;;;;;38.72;18.60;;;4.10;99.90;;;;;;5015708;28;20041;-81
2022/02/08 03:49:32;;;;;;;33.03;18.02;;;4.10;99.90;;;;;;5014355;28;20567;-81
2022/02/08 03:52:04;;;;;;;46.00;22.27;;;4.10;99.90;;;;;;5011248;28;20046;-82
2022/02/08 03:54:35;;;;;;;43.72;20.35;;;4.10;99.90;;;;;;5026673;28;20051;-80
2022/02/08 03:57:06;;;;;;;32.97;15.85;;;4.00;99.90;;;;;;5025935;28;20084;-80
2022/02/08 03:59:33;;;;;;;32.55;19.25;;;4.00;99.90;;;;;;4994250;28;20718;-81
2022/02/08 04:04:33;;;;;;;36.80;20.13;;;4.00;99.90;;;;;;5043688;28;20045;-80
2022/02/08 04:07:06;;;;;;;37.47;19.85;;;4.00;99.90;;;;;;5057095;28;20074;-84
2022/02/08 04:09:33;;;;;;;37.47;19.47;;;4.00;99.90;;;;;;5033644;28;20544;-81
2022/02/08 04:12:05;;;;;;;36.60;19.40;;;4.00;99.90;;;;;;5031989;28;20051;-81
2022/02/08 04:17:10;;;;;;;28.58;15.82;;;4.10;99.90;;;;;;5051579;28;20057;-80
2022/02/08 04:19:50;;;;;;;28.60;16.30;;;4.10;99.90;;;;;;5033450;28;20624;-80
2022/02/08 04:44:25;;;;;;;29.27;17.80;;;4.20;99.90;;;;;;5053422;28;20059;-82
2022/02/08 04:47:04;;;;;;;29.15;17.15;;;4.30;99.90;;;;;;5032841;28;20041;-82
2022/02/08 04:49:31;;;;;;;32.13;18.35;;;4.30;99.90;;;;;;5033734;28;20044;-82
2022/02/08 04:52:02;;;;;;;29.95;19.38;;;4.30;99.90;;;;;;5034166;28;20055;-81
2022/02/08 04:54:56;;;;;;;34.05;18.63;;;4.30;99.90;;;;;;5051979;28;20139;-81
2022/02/08 04:57:31;;;;;;;33.28;18.58;;;4.30;99.90;;;;;;5051003;28;20063;-81
2022/02/08 05:27:49;;;;;;;22.27;13.27;;;4.90;99.90;;;;;;5057012;28;19921;-82
2022/02/08 05:35:35;;;;;;;17.70;10.50;;;5.00;99.90;;;;;;5051921;28;19994;-82
2022/02/08 05:43:45;;;;;;;19.38;11.73;;;5.00;99.90;;;;;;5053447;28;20064;-82
2022/02/08 05:48:26;;;;;;;21.80;13.35;;;5.10;99.90;;;;;;5060456;28;20101;-81
2022/02/08 05:51:12;;;;;;;19.52;10.32;;;5.10;99.90;;;;;;5047263;28;20137;-82
2022/02/08 05:53:44;;;;;;;18.90;11.50;;;5.10;99.90;;;;;;5047648;28;20048;-82
2022/02/08 05:56:13;;;;;;;17.75;10.70;;;5.10;99.90;;;;;;5029273;28;20068;-80
2022/02/08 05:58:42;;;;;;;19.85;11.82;;;5.10;99.90;;;;;;5043050;28;20042;-83
2022/02/08 06:01:10;;;;;;;16.85;10.75;;;5.20;99.90;;;;;;5014023;28;20050;-82
2022/02/08 06:03:58;;;;;;;18.80;10.63;;;5.20;99.90;;;;;;5006256;28;20048;-82
2022/02/08 06:06:27;;;;;;;20.98;11.07;;;5.20;99.90;;;;;;5026303;28;20135;-81
2022/02/08 06:08:54;;;;;;;12.00;7.85;;;5.30;99.90;;;;;;5042078;28;20095;-81
2022/02/08 06:11:23;;;;;;;15.75;9.68;;;5.30;99.90;;;;;;5030371;28;20045;-82
2022/02/08 06:13:52;;;;;;;23.08;12.98;;;5.30;99.90;;;;;;5015522;28;20045;-80
2022/02/08 06:16:25;;;;;;;28.15;14.25;;;5.40;99.90;;;;;;5013730;28;20072;-80
2022/02/08 06:18:51;;;;;;;39.10;17.23;;;5.40;99.90;;;;;;5030710;28;20045;-80
2022/02/08 06:21:18;;;;;;;41.20;19.23;;;5.40;99.90;;;;;;5013918;28;20049;-81
2022/02/08 06:23:45;;;;;;;39.15;16.92;;;5.50;99.90;;;;;;5031261;28;20045;-81
2022/02/08 06:26:14;;;;;;;46.70;21.70;;;5.50;99.90;;;;;;5042412;28;20044;-80
2022/02/08 06:28:41;;;;;;;37.35;18.83;;;5.50;99.90;;;;;;5024984;28;20036;-82
2022/02/08 06:31:09;;;;;;;50.92;21.15;;;5.50;99.90;;;;;;5016453;28;20095;-80
2022/02/08 06:33:36;;;;;;;44.90;20.58;;;5.60;99.90;;;;;;5010297;28;20122;-79
2022/02/08 06:36:03;;;;;;;39.53;17.92;;;5.60;99.90;;;;;;5023792;28;20041;-80
2022/02/08 06:38:30;;;;;;;45.50;19.85;;;5.60;99.90;;;;;;5010616;28;20106;-80
2022/02/08 06:40:57;;;;;;;42.88;19.95;;;5.70;99.90;;;;;;5022248;28;20494;-83
2022/02/08 06:43:26;;;;;;;46.95;22.40;;;5.70;99.90;;;;;;5030866;28;20052;-81
2022/02/08 06:45:53;;;;;;;49.80;23.55;;;5.70;99.90;;;;;;5030464;28;20107;-80
2022/02/08 06:48:19;;;;;;;49.13;23.80;;;5.80;99.90;;;;;;5030101;28;20072;-80
2022/02/08 06:50:46;;;;;;;51.30;23.13;;;5.80;99.90;;;;;;5018487;28;20041;-83
2022/02/08 06:53:15;;;;;;;55.88;23.42;;;5.80;99.90;;;;;;5030237;28;20443;-80
2022/02/08 06:55:43;;;;;;;57.30;25.15;;;5.90;99.90;;;;;;5015033;28;20049;-81
2022/02/08 06:58:12;;;;;;;45.50;21.38;;;5.90;99.90;;;;;;5010647;28;20057;-79
2022/02/08 07:00:42;;;;;;;41.90;20.67;;;5.90;99.90;;;;;;5010589;28;20064;-80
2022/02/08 07:03:13;;;;;;;51.15;21.85;;;5.90;99.90;;;;;;4994715;28;20058;-81
2022/02/08 07:05:40;;;;;;;48.00;23.48;;;6.00;99.90;;;;;;5009400;28;20069;-81
2022/02/08 07:08:08;;;;;;;46.15;22.33;;;6.00;99.90;;;;;;4994249;28;20068;-80
2022/02/08 07:10:35;;;;;;;44.42;19.67;;;6.00;99.90;;;;;;5011344;28;20041;-82
2022/02/08 07:13:07;;;;;;;44.33;20.63;;;6.00;99.90;;;;;;5030073;28;20103;-81
2022/02/08 07:15:34;;;;;;;46.10;20.92;;;6.00;99.90;;;;;;5012640;28;20115;-80
2022/02/08 07:18:02;;;;;;;47.53;18.73;;;6.00;99.90;;;;;;5013247;28;20287;-80
2022/02/08 07:20:31;;;;;;;37.30;18.08;;;6.00;99.90;;;;;;5012909;28;20045;-82
2022/02/08 07:22:59;;;;;;;35.15;17.85;;;6.00;99.90;;;;;;5027336;28;20053;-81
2022/02/08 07:25:32;;;;;;;40.58;20.02;;;6.00;99.90;;;;;;4995112;28;20467;-83
2022/02/08 07:27:59;;;;;;;32.90;17.45;;;6.10;99.90;;;;;;5010751;28;20467;-85
2022/02/08 07:30:27;;;;;;;38.30;18.63;;;6.10;99.90;;;;;;4997585;28;20045;-82
2022/02/08 07:32:55;;;;;;;34.50;16.45;;;6.10;99.90;;;;;;4994532;28;20150;-82
2022/02/08 07:35:48;;;;;;;40.35;21.60;;;6.10;99.90;;;;;;5010040;28;20096;-83
2022/02/08 07:38:29;;;;;;;38.42;21.10;;;6.20;99.90;;;;;;5015212;28;20057;-83
2022/02/08 07:43:23;;;;;;;38.25;17.73;;;6.20;99.90;;;;;;5009597;28;20050;-83
2022/02/08 07:46:07;;;;;;;31.67;17.60;;;6.20;99.90;;;;;;5012697;28;20461;-81
2022/02/08 07:48:34;;;;;;;29.95;14.63;;;6.30;99.90;;;;;;5024128;28;20061;-82
2022/02/08 07:51:01;;;;;;;26.95;15.75;;;6.20;99.90;;;;;;5013482;28;20050;-82
2022/02/08 07:53:28;;;;;;;28.48;16.05;;;6.20;99.90;;;;;;5014383;28;20111;-83
2022/02/08 07:55:55;;;;;;;30.63;16.40;;;6.20;99.90;;;;;;5014730;28;20056;-84
2022/02/08 07:58:24;;;;;;;34.33;18.45;;;6.20;99.90;;;;;;5013846;28;20052;-81
2022/02/08 08:00:51;;;;;;;27.10;14.77;;;6.30;99.90;;;;;;5014692;28;20079;-83
2022/02/08 08:03:20;;;;;;;35.00;18.27;;;6.30;99.90;;;;;;5016327;28;20050;-83
2022/02/08 08:05:48;;;;;;;32.22;17.70;;;6.30;99.90;;;;;;5014558;28;20053;-81
2022/02/08 08:08:15;;;;;;;33.72;18.40;;;6.30;99.90;;;;;;5031814;28;20210;-82
2022/02/08 08:10:46;;;;;;;27.55;15.68;;;6.30;99.90;;;;;;5032819;28;20424;-82
2022/02/08 08:13:17;;;;;;;33.22;19.10;;;6.30;99.90;;;;;;5018317;28;20060;-81
2022/02/08 08:15:56;;;;;;;33.88;17.25;;;6.30;99.90;;;;;;5033123;28;20060;-82
2022/02/08 08:20:59;;;;;;;34.42;18.95;;;6.40;99.90;;;;;;5016600;28;20068;-82
2022/02/08 08:23:26;;;;;;;36.60;18.85;;;6.40;99.90;;;;;;5013944;28;20064;-82
2022/02/08 08:25:53;;;;;;;38.53;19.75;;;6.40;99.90;;;;;;5030574;28;20041;-80
2022/02/08 08:28:22;;;;;;;44.83;20.17;;;6.40;99.90;;;;;;5012891;28;20056;-82
2022/02/08 08:30:48;;;;;;;30.83;17.35;;;6.50;99.90;;;;;;5019430;28;20049;-82
2022/02/08 08:33:15;;;;;;;34.60;19.20;;;6.50;99.90;;;;;;5014301;28;20053;-82
2022/02/08 08:36:03;;;;;;;30.75;17.95;;;6.50;99.90;;;;;;4999755;28;20049;-82
2022/02/08 08:38:32;;;;;;;31.23;19.00;;;6.50;99.90;;;;;;5023402;28;20049;-83
2022/02/08 08:41:09;;;;;;;32.90;19.85;;;6.50;99.90;;;;;;5032377;28;20045;-81
2022/02/08 08:43:58;;;;;;;37.05;20.05;;;6.60;99.90;;;;;;5015761;28;20622;-81
2022/02/08 08:51:53;;;;;;;30.52;17.45;;;6.60;99.90;;;;;;5049623;28;20056;-81
2022/02/08 08:54:21;;;;;;;31.95;18.48;;;6.70;99.90;;;;;;5017305;28;20571;-83
2022/02/08 08:56:50;;;;;;;32.30;18.60;;;6.60;99.90;;;;;;5016625;28;20107;-82
2022/02/08 08:59:18;;;;;;;26.83;14.20;;;6.60;99.90;;;;;;5033862;28;20118;-81
2022/02/08 09:01:48;;;;;;;32.63;18.23;;;6.70;99.90;;;;;;5013493;28;20536;-82
2022/02/08 09:04:18;;;;;;;30.70;18.77;;;6.70;99.90;;;;;;5014108;28;20349;-82
2022/02/08 09:06:49;;;;;;;36.72;19.55;;;6.70;99.90;;;;;;5028150;28;20046;-82
2022/02/08 09:09:20;;;;;;;33.90;19.00;;;6.80;99.90;;;;;;5010741;28;20364;-81
2022/02/08 09:14:53;;;;;;;27.85;15.75;;;6.70;99.90;;;;;;5003140;28;20060;-82
2022/02/08 09:28:09;;;;;;;30.63;17.17;;;6.90;99.90;;;;;;5031243;28;20068;-82
2022/02/08 09:30:49;;;;;;;32.28;17.42;;;6.90;99.90;;;;;;5015087;28;20064;-84
2022/02/08 09:33:17;;;;;;;32.33;18.13;;;7.00;99.90;;;;;;4988175;28;20060;-82
2022/02/08 09:35:44;;;;;;;36.38;19.35;;;7.00;99.90;;;;;;5014951;28;20033;-81
2022/02/08 09:38:10;;;;;;;36.30;19.05;;;7.00;99.90;;;;;;5010324;28;20064;-83
2022/02/08 09:40:38;;;;;;;34.58;20.23;;;7.00;99.90;;;;;;5032446;28;20065;-82
2022/02/08 09:43:06;;;;;;;37.40;19.23;;;7.10;99.90;;;;;;5017684;28;20386;-82
2022/02/08 09:45:34;;;;;;;35.67;17.83;;;7.10;99.90;;;;;;5031027;28;20120;-84
2022/02/08 09:50:36;;;;;;;29.88;17.98;;;7.10;99.90;;;;;;5020989;28;20111;-82
2022/02/08 09:53:08;;;;;;;30.27;16.90;;;7.10;99.90;;;;;;5011405;28;20176;-84
2022/02/08 09:55:40;;;;;;;28.05;16.70;;;7.10;99.90;;;;;;5011300;28;20057;-82
2022/02/08 09:58:09;;;;;;;32.50;17.23;;;7.20;99.90;;;;;;5011995;28;20059;-83
2022/02/08 10:00:38;;;;;;;31.17;14.82;;;7.20;99.90;;;;;;5018971;28;20052;-83
2022/02/08 10:03:07;;;;;;;29.67;18.48;;;7.20;99.90;;;;;;5032209;28;20090;-82
2022/02/08 10:05:50;;;;;;;33.30;17.73;;;7.20;99.90;;;;;;5014392;28;20052;-82
2022/02/08 10:08:19;;;;;;;27.55;15.80;;;7.20;99.90;;;;;;5001291;28;20085;-82
2022/02/08 10:10:46;;;;;;;42.65;21.88;;;7.20;99.90;;;;;;5025015;28;20074;-82
2022/02/08 10:21:48;;;;;;;28.10;17.40;;;7.30;99.90;;;;;;5021115;28;20148;-83
2022/02/08 10:24:17;;;;;;;34.75;18.75;;;7.30;99.90;;;;;;5010131;28;20118;-81
2022/02/08 10:29:45;;;;;;;28.73;17.67;;;7.30;99.90;;;;;;5017325;28;20056;-83
2022/02/08 10:40:17;;;;;;;31.05;18.27;;;7.50;99.90;;;;;;5028488;28;20130;-82
2022/02/08 10:42:54;;;;;;;33.05;19.85;;;7.40;99.90;;;;;;5022813;28;20382;-83
2022/02/08 10:45:32;;;;;;;35.97;19.52;;;7.50;99.90;;;;;;5030108;28;20053;-83
2022/02/08 10:48:04;;;;;;;34.85;18.17;;;7.50;99.90;;;;;;5031447;28;20163;-81
2022/02/08 10:50:34;;;;;;;36.72;19.88;;;7.50;99.90;;;;;;5011414;28;20057;-83
2022/02/08 10:53:03;;;;;;;30.05;18.00;;;7.50;99.90;;;;;;5006374;28;20052;-81
2022/02/08 10:58:15;;;;;;;29.10;16.15;;;7.60;99.90;;;;;;5030985;28;20083;-84
2022/02/08 11:03:16;;;;;;;34.95;18.35;;;7.50;99.90;;;;;;5016888;28;20061;-82
2022/02/08 11:06:36;;;;;;;35.10;17.33;;;7.60;99.90;;;;;;5029124;28;20053;-82
2022/02/08 11:19:56;;;;;;;32.40;18.75;;;7.60;99.90;;;;;;5044883;28;20045;-82
2022/02/08 11:22:36;;;;;;;27.63;16.90;;;7.60;99.90;;;;;;5045160;28;20568;-83
2022/02/08 11:25:18;;;;;;;32.60;19.02;;;7.70;99.90;;;;;;5008785;28;20077;-83
2022/02/08 11:27:54;;;;;;;29.88;16.05;;;7.70;99.90;;;;;;5007327;28;20119;-83
2022/02/08 11:30:35;;;;;;;33.72;18.50;;;7.70;99.90;;;;;;5008819;28;20059;-84
2022/02/08 11:33:13;;;;;;;34.97;17.95;;;7.70;99.90;;;;;;5010599;28;20696;-83
2022/02/08 11:46:50;;;;;;;31.45;17.60;;;7.70;99.90;;;;;;5005243;28;20079;-83
2022/02/08 11:52:51;;;;;;;27.35;15.40;;;7.80;99.90;;;;;;5024801;28;20049;-84
2022/02/08 12:07:36;;;;;;;28.05;16.20;;;8.00;99.90;;;;;;5036849;28;20075;-83
2022/02/08 12:11:14;;;;;;;27.35;15.38;;;8.00;99.90;;;;;;5024413;28;20052;-83
2022/02/08 13:01:12;;;;;;;15.32;8.80;;;8.30;99.90;;;;;;5032577;28;20107;-82
2022/02/08 14:06:43;;;;;;;12.38;7.43;;;8.50;99.90;;;;;;5020780;28;20053;-82
2022/02/08 14:30:48;;;;;;;;;;;8.50;99.90;;;;;;5009897;28;20057;-81
2022/02/08 15:00:38;;;;;;;21.55;10.00;;;8.40;99.90;;;;;;5013520;28;19970;-82
2022/02/08 15:10:50;;;;;;;12.95;8.80;;;8.50;99.90;;;;;;5025768;28;20099;-82
2022/02/08 15:13:21;;;;;;;13.25;8.57;;;8.50;99.90;;;;;;5043629;28;20053;-80
2022/02/08 15:18:34;;;;;;;14.25;9.32;;;8.60;99.90;;;;;;5027293;28;20045;-81
2022/02/08 15:21:03;;;;;;;20.73;11.55;;;8.50;99.90;;;;;;5005372;28;20278;-79
2022/02/08 15:23:34;;;;;;;16.67;10.98;;;8.50;99.90;;;;;;5008058;28;20046;-80
2022/02/08 15:26:02;;;;;;;22.42;10.20;;;8.50;99.90;;;;;;4990455;28;20053;-80
2022/02/08 15:28:29;;;;;;;21.15;11.18;;;8.60;99.90;;;;;;5008556;28;20050;-81
2022/02/08 15:30:57;;;;;;;19.85;10.68;;;8.60;99.90;;;;;;5009149;28;20041;-81
2022/02/08 15:33:24;;;;;;;19.50;9.60;;;8.60;99.90;;;;;;4998643;28;20374;-79
2022/02/08 15:35:53;;;;;;;14.85;9.10;;;8.60;99.90;;;;;;5006674;28;20461;-79
2022/02/08 15:38:25;;;;;;;11.60;6.93;;;8.50;99.90;;;;;;4994728;28;20061;-81
2022/02/08 15:40:52;;;;;;;20.38;8.80;;;8.60;99.90;;;;;;5027049;28;20114;-80
2022/02/08 15:43:19;;;;;;;10.90;7.78;;;8.50;99.90;;;;;;5025534;28;20045;-83
2022/02/08 15:46:25;;;;;;;13.10;7.65;;;8.50;99.90;;;;;;5022893;28;20041;-80
2022/02/08 15:48:45;;;;;;;18.85;8.98;;;8.60;99.90;;;;;;5027293;28;20057;-81
2022/02/08 15:52:00;;;;;;;13.00;6.90;;;8.50;99.90;;;;;;5011954;28;20095;-81
2022/02/08 15:54:14;;;;;;;15.65;7.90;;;8.50;99.90;;;;;;5019950;28;20049;-79
2022/02/08 16:00:21;;;;;;;19.45;8.00;;;8.50;99.90;;;;;;5026090;28;20041;-79
2022/02/08 16:05:38;;;;;;;18.05;7.60;;;8.60;99.90;;;;;;5026609;28;20430;-80
2022/02/08 16:08:28;;;;;;;10.40;5.82;;;8.50;99.90;;;;;;5017253;28;20060;-80
2022/02/08 16:11:32;;;;;;;9.05;6.15;;;8.50;99.90;;;;;;5009970;28;20119;-80
2022/02/08 16:14:14;;;;;;;17.27;8.00;;;8.50;99.90;;;;;;5015113;28;20056;-81
2022/02/08 16:59:35;;;;;;;;;;;8.40;99.90;;;;;;5011640;28;20057;-78
2022/02/08 17:02:05;;;;;;;12.15;8.05;;;8.40;99.90;;;;;;5010008;28;19933;-78
2022/02/08 17:04:32;;;;;;;13.13;8.13;;;8.30;99.90;;;;;;5016714;28;20044;-79
2022/02/08 17:06:59;;;;;;;12.10;7.57;;;8.40;99.90;;;;;;5040892;28;20098;-78
2022/02/08 17:09:43;;;;;;;10.98;7.53;;;8.40;99.90;;;;;;5019081;28;20098;-79
2022/02/08 17:12:20;;;;;;;14.23;8.40;;;8.30;99.90;;;;;;5014153;28;20052;-78
2022/02/08 17:15:20;;;;;;;12.52;9.30;;;8.30;99.90;;;;;;5002184;28;20125;-79
2022/02/08 17:47:43;;;;;;;14.13;7.82;;;8.20;99.90;;;;;;5028567;28;20592;-78
2022/02/08 17:50:13;;;;;;;13.73;6.85;;;8.20;99.90;;;;;;5009691;28;20593;-81
2022/02/08 17:52:41;;;;;;;12.18;7.05;;;8.20;99.90;;;;;;5032610;28;20135;-80
2022/02/08 17:55:10;;;;;;;11.05;7.22;;;8.20;99.90;;;;;;5029902;28;20106;-81
2022/02/08 17:57:37;;;;;;;11.25;6.15;;;8.20;99.90;;;;;;5047793;28;20044;-79
2022/02/08 18:00:06;;;;;;;15.52;7.03;;;8.30;99.90;;;;;;4997587;28;20478;-79
2022/02/08 18:02:36;;;;;;;19.17;9.35;;;8.30;99.90;;;;;;5029207;28;20045;-80
2022/02/08 18:05:04;;;;;;;13.05;7.72;;;8.30;99.90;;;;;;5010836;28;20064;-80
2022/02/08 18:07:31;;;;;;;11.25;7.93;;;8.30;99.90;;;;;;5009784;28;20053;-80
2022/02/08 18:09:57;;;;;;;16.58;8.55;;;8.30;99.90;;;;;;5023641;28;20057;-79
2022/02/08 18:12:26;;;;;;;17.60;8.43;;;8.30;99.90;;;;;;5046095;28;20076;-80
2022/02/08 18:15:00;;;;;;;13.27;8.98;;;8.30;99.90;;;;;;5030186;28;20312;-80
2022/02/08 18:17:31;;;;;;;16.40;8.15;;;8.30;99.90;;;;;;5013098;28;20106;-81
2022/02/08 18:20:07;;;;;;;16.00;9.60;;;8.30;99.90;;;;;;5016332;28;20041;-79
2022/02/08 19:16:15;;;;;;;27.25;11.95;;;8.30;99.90;;;;;;5031433;28;20045;-81
2022/02/08 19:19:07;;;;;;;13.55;9.15;;;8.30;99.90;;;;;;5030989;28;20056;-82
2022/02/08 19:21:38;;;;;;;22.15;11.68;;;8.30;99.90;;;;;;5023439;28;20565;-81
2022/02/08 19:24:05;;;;;;;19.95;12.18;;;8.20;99.90;;;;;;5010390;28;20053;-79
2022/02/08 19:26:33;;;;;;;15.70;11.27;;;8.30;99.90;;;;;;5009440;28;20045;-80
2022/02/08 19:29:00;;;;;;;17.52;10.65;;;8.30;99.90;;;;;;4995037;28;20053;-81
2022/02/08 19:31:27;;;;;;;27.85;13.93;;;8.30;99.90;;;;;;5009816;28;20038;-81
2022/02/08 19:33:57;;;;;;;17.08;10.20;;;8.20;99.90;;;;;;5027417;28;20045;-81
2022/02/08 19:36:23;;;;;;;21.42;12.55;;;8.20;99.90;;;;;;5011991;28;20053;-80
2022/02/08 19:38:58;;;;;;;19.17;12.68;;;8.30;99.90;;;;;;5021786;28;20049;-82
2022/02/08 19:41:24;;;;;;;26.35;12.77;;;8.20;99.90;;;;;;5029192;28;20669;-79
2022/02/08 19:43:51;;;;;;;21.25;12.48;;;8.20;99.90;;;;;;5050671;28;20045;-80
2022/02/08 19:46:18;;;;;;;20.55;11.23;;;8.20;99.90;;;;;;5032114;28;20069;-81
2022/02/08 19:48:45;;;;;;;23.65;14.23;;;8.20;99.90;;;;;;5031777;28;20083;-80
2022/02/08 19:51:12;;;;;;;23.45;14.02;;;8.30;99.90;;;;;;5016191;28;20053;-80
2022/02/08 19:53:42;;;;;;;30.50;14.85;;;8.20;99.90;;;;;;5014581;28;20738;-80
2022/02/08 19:56:25;;;;;;;25.30;15.77;;;8.20;99.90;;;;;;4997856;28;20157;-80
2022/02/08 19:58:56;;;;;;;26.85;14.40;;;8.20;99.90;;;;;;5013073;28;20499;-79
2022/02/08 20:01:28;;;;;;;26.20;16.15;;;8.20;99.90;;;;;;5013605;28;20072;-80
2022/02/08 20:04:15;;;;;;;25.77;15.75;;;8.20;99.90;;;;;;5032898;28;20675;-80
2022/02/08 20:06:43;;;;;;;27.50;16.23;;;8.20;99.90;;;;;;5031566;28;20053;-81
2022/02/08 20:09:10;;;;;;;26.95;16.48;;;8.20;99.90;;;;;;5032350;28;20049;-81
2022/02/08 20:11:37;;;;;;;27.50;17.73;;;8.20;99.90;;;;;;5016549;28;20045;-79
2022/02/08 20:14:07;;;;;;;27.58;16.63;;;8.20;99.90;;;;;;5035248;28;20067;-81
2022/02/08 20:16:36;;;;;;;28.90;17.30;;;8.10;99.90;;;;;;5018345;28;20041;-79
2022/02/08 20:19:05;;;;;;;26.52;15.23;;;8.20;99.90;;;;;;5018338;28;20052;-81
2022/02/08 20:21:33;;;;;;;28.75;18.05;;;8.10;99.90;;;;;;5018058;28;20250;-80
2022/02/08 20:24:03;;;;;;;27.10;17.15;;;8.20;99.90;;;;;;5003750;28;20552;-81
2022/02/08 20:29:15;;;;;;;23.67;13.73;;;8.20;99.90;;;;;;5035186;28;20053;-81
2022/02/08 20:31:47;;;;;;;26.23;17.50;;;8.20;99.90;;;;;;5018185;28;20194;-81
2022/02/08 20:34:16;;;;;;;30.95;15.93;;;8.30;99.90;;;;;;5018917;28;20856;-83
2022/02/08 20:36:45;;;;;;;26.55;15.88;;;8.20;99.90;;;;;;5014487;28;20067;-81
2022/02/08 20:39:13;;;;;;;25.83;15.57;;;8.20;99.90;;;;;;5032288;28;20114;-81
2022/02/08 20:41:41;;;;;;;27.33;18.08;;;8.20;99.90;;;;;;5015253;28;20053;-82
2022/02/08 20:44:12;;;;;;;27.65;17.45;;;8.20;99.90;;;;;;5033293;28;20397;-83
2022/02/08 20:46:50;;;;;;;25.85;17.02;;;8.20;99.90;;;;;;5019781;28;20117;-81
2022/02/08 20:49:18;;;;;;;27.80;16.48;;;8.20;99.90;;;;;;5020306;28;20057;-81
2022/02/08 20:51:46;;;;;;;30.50;15.02;;;8.20;99.90;;;;;;5015234;28;20068;-82
2022/02/08 20:54:19;;;;;;;26.90;15.68;;;8.20;99.90;;;;;;5027023;28;20052;-82
2022/02/08 20:57:00;;;;;;;23.65;14.93;;;8.10;99.90;;;;;;4995763;28;20586;-81
2022/02/08 20:59:28;;;;;;;23.77;15.80;;;8.20;99.90;;;;;;5011534;28;20045;-81
2022/02/08 21:02:16;;;;;;;24.58;14.60;;;8.20;99.90;;;;;;5011532;28;20643;-82
2022/02/08 21:05:00;;;;;;;22.73;15.20;;;8.10;99.90;;;;;;5001412;28;20052;-82
2022/02/08 21:07:27;;;;;;;23.95;12.63;;;8.20;99.90;;;;;;5043001;28;20057;-81
2022/02/08 21:09:54;;;;;;;28.15;13.32;;;8.10;99.90;;;;;;5016832;28;20052;-82
2022/02/08 21:12:29;;;;;;;27.27;14.38;;;8.10;99.90;;;;;;5012252;28;20054;-83